首页
METAR-TAF:

METAR-TAF

机场 :

阿什维尔, 北卡罗来纳州, 美国

纬度: 35-25-55N, 经度: 082-32-15W, 海拔: 660米

当前天气观测

该预报发布于18分钟前的16:54 UTC
风速12节,风向北转西北
温度 6°C
湿度 56%
气压 1023 hPa
能見度: 16.1公里
天空无云

METAR: KAVL 161654Z 33012KT 10SM CLR 06/M02 A3021 RMK AO2 SLP237 T00561017

时间: 12:12 (17:12 UTC)

预报

该预报发布于3小时和14分钟前的13:58 UTC
预报有效从16日的 14点(UTC)到 17日的 12点(UTC)
风速11节,风向北转西北
能見度: 10公里
散云层高于25000英尺
从 17日的 0000点(UTC)
风速2节,风向多变
能見度: 10公里
少量云层高于24000英尺
从 17日的 1100点(UTC)
风速2节,风向多变
能見度: 9.7公里
散云层高于15000英尺
轻雾

TAF: KAVL 161358Z 1614/1712 34011KT P6SM SCT250 FM170000 VRB02KT P6SM FEW240 FM171100 VRB02KT 6SM BR SCT150

超过4000个机场的气象观测和天气预报(METAR&TAF报告)。

可查询的气象台以黄色和红色小点在地图上表示。

将鼠标移到小点上方,可查看气象台名称。

然后点击查看天气观测和预报。

如需切换地图:点击带黑十字的绿色按钮放大地图;点击带横线的绿色按钮缩小地图;或者点击绿色箭头查看邻近地区的地图。


METAR-TAF: